.
WxDataArchive / Data Records for 2012-06-09
2012-06-08 June 2012 2012-06-10

Data Records for Saturday, 09 June 2012

Time	Temp	Chill	HIndex	Humid	Dewpt	 Wind 	HiWind	WindDir	Rain 	Barom 
-----	----	-----	------	-----	-----	------	------	-------	-----	----- 
00:00	67.3	67.3	67.3	46	45.8	0	0	---	0.00	29.942 
00:05	67.4	67.4	67.4	46	45.9	0	0	---	0.00	29.942 
00:10	67.6	67.6	67.6	46	46.1	0	0	---	0.00	29.942 
00:15	67.6	67.6	67.6	46	46.1	0	0	---	0.00	29.940 
00:20	67.8	67.8	67.8	45	45.7	0	0	---	0.00	29.940 
00:25	67.8	67.8	67.8	45	45.7	0	0	---	0.00	29.940 
00:30	67.8	67.8	67.8	46	46.3	0	0	---	0.00	29.940 
00:35	67.8	67.8	67.8	45	45.7	0	0	---	0.00	29.940 
00:40	67.8	67.8	67.8	46	46.3	0	0	---	0.00	29.940 
00:45	67.8	67.8	67.8	46	46.3	0	0	---	0.00	29.942 
00:50	67.8	67.8	67.8	46	46.3	0	1	292	0.00	29.942 
00:55	67.9	67.9	67.9	46	46.3	0	1	292	0.00	29.942 
01:00	67.9	67.9	67.9	46	46.3	0	0	---	0.00	29.940 
01:05	67.8	67.8	67.8	46	46.3	0	0	---	0.00	29.940 
01:10	67.8	67.8	67.8	46	46.3	0	1	292	0.00	29.940 
01:15	67.8	67.8	67.8	46	46.3	0	1	292	0.00	29.936 
01:20	67.9	67.9	67.9	46	46.3	0	1	292	0.00	29.936 
01:25	67.9	67.9	67.9	45	45.8	0	1	292	0.00	29.936 
01:30	68.1	68.1	68.1	45	45.9	0	2	292	0.00	29.933 
01:35	68.3	68.3	68.3	45	46.1	0	0	---	0.00	29.933 
01:40	68.3	68.3	68.3	45	46.1	0	0	---	0.00	29.933 
01:45	68.1	68.1	68.1	45	45.9	0	0	---	0.00	29.932 
01:50	67.9	67.9	67.9	46	46.3	0	0	---	0.00	29.932 
01:55	67.8	67.8	67.8	46	46.3	0	0	---	0.00	29.932 
02:00	67.6	67.6	67.6	46	46.1	0	0	---	0.00	29.932 
02:05	67.3	67.3	67.3	47	46.4	0	0	---	0.00	29.932 
02:10	67.1	67.1	67.1	48	46.7	0	0	---	0.00	29.932 
02:15	66.9	66.9	66.9	48	46.6	0	0	---	0.00	29.932 
02:20	66.8	66.8	66.8	49	47.0	0	0	---	0.00	29.932 
02:25	66.8	66.8	66.8	49	47.0	0	1	292	0.00	29.932 
02:30	66.8	66.8	66.8	48	46.5	0	0	---	0.00	29.931 
02:35	66.6	66.6	66.6	50	47.4	0	0	---	0.00	29.931 
02:40	66.8	66.8	66.8	49	47.0	0	1	292	0.00	29.931 
02:45	66.9	66.9	66.9	49	47.1	0	0	---	0.00	29.932 
02:50	66.9	66.9	66.9	49	47.1	0	0	---	0.00	29.932 
02:55	66.9	66.9	66.9	49	47.1	0	1	292	0.00	29.932 
03:00	66.9	66.9	66.9	49	47.1	0	1	292	0.00	29.932 
03:05	67.1	67.1	67.1	49	47.3	0	1	292	0.00	29.932 
03:10	67.1	67.1	67.1	49	47.3	0	1	292	0.00	29.932 
03:15	67.1	67.1	67.1	49	47.3	0	1	292	0.00	29.931 
03:20	66.9	66.9	66.9	50	47.6	0	0	---	0.00	29.931 
03:25	66.9	66.9	66.9	50	47.6	0	1	292	0.00	29.931 
03:30	66.8	66.8	66.8	50	47.6	0	1	292	0.00	29.932 
03:35	66.8	66.8	66.8	50	47.6	0	1	292	0.00	29.932 
03:40	66.6	66.6	66.6	50	47.4	0	1	292	0.00	29.932 
03:45	66.6	66.6	66.6	50	47.4	0	1	292	0.00	29.932 
03:50	66.6	66.6	66.6	50	47.4	0	1	292	0.00	29.932 
03:55	66.4	66.4	66.4	50	47.2	0	1	292	0.00	29.932 
04:00	66.3	66.3	66.3	51	47.6	0	1	292	0.00	29.930 
04:05	66.3	66.3	66.3	51	47.6	0	1	292	0.00	29.930 
04:10	66.1	66.1	66.1	51	47.4	0	1	292	0.00	29.930 
04:15	66.1	66.1	66.1	51	47.4	0	1	292	0.00	29.931 
04:20	66.0	66.0	66.0	52	47.9	0	1	292	0.00	29.931 
04:25	65.8	65.8	65.8	52	47.7	0	1	292	0.00	29.931 
04:30	65.8	65.8	65.8	52	47.7	0	1	292	0.00	29.932 
04:35	65.6	65.6	65.6	52	47.5	0	1	292	0.00	29.932 
04:40	65.6	65.6	65.6	52	47.5	0	0	---	0.00	29.932 
04:45	65.5	65.5	65.5	53	47.9	0	0	---	0.00	29.932 
04:50	65.2	65.2	65.2	54	48.1	0	0	---	0.00	29.932 
04:55	65.0	65.0	65.0	54	47.9	0	1	292	0.00	29.932 
05:00	64.8	64.8	64.8	54	47.8	0	0	---	0.00	29.933 
05:05	64.7	64.7	64.7	54	47.7	0	0	---	0.00	29.933 
05:10	64.5	64.5	64.5	55	48.0	0	0	---	0.00	29.933 
05:15	64.3	64.3	64.3	55	47.8	0	0	---	0.00	29.934 
05:20	64.2	64.2	64.2	55	47.7	0	0	---	0.00	29.934 
05:25	64.3	64.3	64.3	55	47.8	0	1	292	0.00	29.934 
05:30	64.2	64.2	64.2	56	48.2	0	0	---	0.00	29.934 
05:35	64.0	64.0	64.0	56	48.0	0	0	---	0.00	29.934 
05:40	63.9	63.9	63.9	56	47.9	0	0	---	0.00	29.934 
05:45	63.7	63.7	63.7	57	48.2	0	0	---	0.00	29.935 
05:50	63.4	63.4	63.4	57	47.9	0	0	---	0.00	29.935 
05:55	63.1	63.1	63.1	58	48.1	0	0	---	0.00	29.935 
06:00	62.7	62.7	62.7	58	47.7	0	0	---	0.00	29.937 
06:05	62.6	62.6	62.6	58	47.6	0	0	---	0.00	29.937 
06:10	62.3	62.3	62.3	59	47.8	0	0	---	0.00	29.937 
06:15	62.1	62.1	62.1	60	48.0	0	0	---	0.00	29.941 
06:20	62.1	62.1	62.1	60	48.0	0	0	---	0.00	29.941 
06:25	62.0	62.0	62.0	60	48.0	0	0	---	0.00	29.941 
06:30	61.8	61.8	61.8	61	48.2	0	0	---	0.00	29.944 
06:35	61.8	61.8	61.8	61	48.2	0	0	---	0.00	29.944 
06:40	61.8	61.8	61.8	62	48.6	0	0	---	0.00	29.944 
06:45	61.8	61.8	61.8	62	48.6	0	0	---	0.00	29.951 
06:50	61.8	61.8	61.8	62	48.6	0	0	---	0.00	29.951 
06:55	61.8	61.8	61.8	62	48.6	0	0	---	0.00	29.951 
07:00	62.0	62.0	62.0	62	48.8	0	0	---	0.00	29.958 
07:05	62.3	62.3	62.3	63	49.5	0	0	---	0.00	29.958 
07:10	62.6	62.6	62.6	62	49.4	0	0	---	0.00	29.958 
07:15	63.1	63.1	63.1	61	49.4	0	1	292	0.00	29.956 
07:20	64.0	64.0	64.0	59	49.4	0	2	292	0.00	29.956 
07:25	65.0	65.0	65.0	56	48.9	0	2	338	0.00	29.956 
07:30	66.0	66.0	66.0	54	48.9	1	2	338	0.00	29.958 
07:35	66.8	66.8	66.8	53	49.1	1	2	338	0.00	29.958 
07:40	67.4	67.4	67.4	51	48.6	1	2	338	0.00	29.958 
07:45	68.1	68.1	68.1	50	48.7	1	3	338	0.00	29.956 
07:50	68.4	68.4	68.4	50	49.0	1	3	338	0.00	29.956 
07:55	68.9	68.9	68.9	50	49.5	1	3	338	0.00	29.956 
08:00	69.3	69.3	69.3	48	48.8	1	3	338	0.00	29.959 
08:05	69.6	69.6	69.6	48	49.0	1	3	338	0.00	29.959 
08:10	69.9	69.9	69.9	47	48.7	1	3	338	0.00	29.959 
08:15	70.4	70.4	70.4	48	49.8	1	2	315	0.00	29.966 
08:20	70.9	70.9	70.9	46	49.1	1	3	315	0.00	29.966 
08:25	71.3	71.3	71.3	46	49.4	1	3	315	0.00	29.966 
08:30	71.6	71.6	71.6	45	49.1	1	4	315	0.00	29.969 
08:35	72.1	72.1	72.1	44	49.0	1	2	270	0.00	29.969 
08:40	72.7	72.7	72.7	44	49.5	1	3	270	0.00	29.969 
08:45	73.0	73.0	73.0	43	49.2	1	3	270	0.00	29.971 
08:50	73.2	73.2	73.2	43	49.3	1	4	270	0.00	29.971 
08:55	73.7	73.7	73.7	43	49.8	1	3	292	0.00	29.971 
09:00	74.4	74.4	74.4	43	50.4	1	3	292	0.00	29.975 
09:05	74.7	74.7	74.7	41	49.4	1	3	292	0.00	29.975 
09:10	75.3	75.3	77.6	41	50.0	1	2	292	0.00	29.975 
09:15	75.6	75.6	77.7	40	49.6	2	3	292	0.00	29.981 
09:20	76.1	76.1	77.8	39	49.3	2	3	292	0.00	29.981 
09:25	76.5	76.5	78.0	39	49.7	2	4	292	0.00	29.981 
09:30	76.8	76.8	78.0	38	49.2	2	3	292	0.00	29.980 
09:35	77.4	77.4	78.3	37	49.1	1	4	292	0.00	29.980 
09:40	77.9	77.9	78.5	37	49.5	1	3	270	0.00	29.980 
09:45	78.3	78.3	78.6	36	49.1	2	4	270	0.00	29.981 
09:50	78.6	78.6	78.7	35	48.6	2	4	270	0.00	29.981 
09:55	78.8	78.8	78.8	35	48.8	2	4	292	0.00	29.981 
10:00	79.0	79.0	79.0	36	49.7	2	4	292	0.00	29.979 
10:05	79.6	79.6	79.3	35	49.5	2	5	292	0.00	29.979 
10:10	79.9	79.9	79.5	35	49.8	2	5	270	0.00	29.979 
10:15	80.5	80.5	79.7	33	48.7	2	4	270	0.00	29.976 
10:20	81.1	81.1	80.3	35	50.8	1	3	270	0.00	29.976 
10:25	81.6	81.6	80.4	32	48.9	2	4	270	0.00	29.976 
10:30	81.8	81.8	80.5	32	49.0	2	5	270	0.00	29.972 
10:35	82.4	82.4	80.9	31	48.7	2	4	270	0.00	29.972 
10:40	82.4	82.4	80.8	30	47.8	2	5	270	0.00	29.972 
10:45	82.8	82.8	81.2	31	49.0	2	4	270	0.00	29.968 
10:50	83.2	83.2	81.3	29	47.6	2	4	270	0.00	29.968 
10:55	82.8	82.8	80.9	28	46.3	3	6	270	0.00	29.968 
11:00	83.0	83.0	81.0	28	46.5	2	3	270	0.00	29.969 
11:05	83.4	83.4	81.3	27	45.9	2	5	270	0.00	29.969 
11:10	83.8	83.8	81.7	28	47.2	2	5	248	0.00	29.969 
11:15	84.1	84.1	81.8	27	46.5	2	7	248	0.00	29.968 
11:20	84.3	84.3	82.0	27	46.6	1	4	270	0.00	29.968 
11:25	84.5	84.5	82.1	27	46.8	2	5	270	0.00	29.968 
11:30	84.7	84.7	82.2	26	46.0	3	6	270	0.00	29.964 
11:35	84.7	84.7	82.3	27	47.0	2	5	248	0.00	29.964 
11:40	84.5	84.5	82.2	28	47.8	3	9	270	0.00	29.964 
11:45	84.9	84.9	82.6	28	48.1	2	4	248	0.00	29.963 
11:50	85.3	85.3	82.8	27	47.5	3	5	248	0.00	29.963 
11:55	85.1	85.1	82.6	27	47.3	3	5	270	0.00	29.963 
12:00	84.9	84.9	82.4	26	46.2	3	6	270	0.00	29.962 
12:05	84.5	84.5	82.0	26	45.8	4	7	270	0.00	29.962 
12:10	84.5	84.5	82.0	26	45.8	3	7	270	0.00	29.962 
12:15	84.7	84.7	82.3	27	47.0	3	7	315	0.00	29.959 
12:20	85.3	85.3	82.7	26	46.5	2	4	270	0.00	29.959 
12:25	85.7	85.7	83.0	26	46.8	2	4	270	0.00	29.959 
12:30	85.9	85.9	83.1	25	46.0	2	5	270	0.00	29.952 
12:35	85.7	85.7	82.9	25	45.8	2	5	270	0.00	29.952 
12:40	86.3	86.3	83.7	27	48.3	2	6	270	0.00	29.952 
12:45	86.1	86.1	83.4	26	47.2	3	7	270	0.00	29.949 
12:50	85.3	85.3	82.6	25	45.5	3	6	315	0.00	29.949 
12:55	85.1	85.1	82.6	27	47.3	2	6	315	0.00	29.949 
13:00	85.5	85.5	82.9	26	46.7	3	7	270	0.00	29.948 
13:05	85.9	85.9	83.2	26	47.0	2	5	270	0.00	29.948 
13:10	86.5	86.5	83.6	25	46.5	2	7	248	0.00	29.948 
13:15	86.7	86.7	83.8	25	46.6	2	4	248	0.00	29.946 
13:20	86.7	86.7	83.8	25	46.6	2	5	248	0.00	29.946 
13:25	87.0	87.0	84.1	25	46.9	1	4	292	0.00	29.946 
13:30	87.2	87.2	84.3	25	47.1	2	6	270	0.00	29.944 
13:35	87.2	87.2	84.3	25	47.1	1	5	270	0.00	29.944 
13:40	87.6	87.6	84.6	25	47.4	1	3	270	0.00	29.944 
13:45	88.2	88.2	85.2	25	47.9	1	3	270	0.00	29.930 
13:50	88.2	88.2	85.1	24	46.8	2	4	292	0.00	29.930 
13:55	88.0	88.0	85.0	25	47.7	3	5	292	0.00	29.930 
14:00	87.8	87.8	84.8	25	47.6	1	3	270	0.00	29.926 
14:05	88.2	88.2	85.3	26	48.9	2	4	270	0.00	29.926 
14:10	88.2	88.2	85.2	25	47.9	2	5	292	0.00	29.926 
14:15	88.2	88.2	85.2	25	47.9	1	3	292	0.00	29.924 
14:20	88.2	88.2	85.1	24	46.8	1	5	292	0.00	29.924 
14:25	88.4	88.4	85.4	25	48.1	2	6	90	0.00	29.924 
14:30	88.2	88.2	85.1	24	46.8	3	6	270	0.00	29.918 
14:35	87.8	87.8	84.8	25	47.6	2	5	270	0.00	29.918 
14:40	88.4	88.4	85.3	24	47.0	2	5	270	0.00	29.918 
14:45	88.4	88.4	85.3	24	47.0	2	4	270	0.00	29.916 
14:50	88.8	88.8	85.6	24	47.3	1	5	270	0.00	29.916 
14:55	88.8	88.8	85.8	25	48.4	2	10	292	0.00	29.916 
15:00	88.8	88.8	85.6	24	47.3	2	11	112	0.00	29.912 
15:05	88.4	88.4	85.3	24	47.0	2	4	248	0.00	29.912 
15:10	88.6	88.6	85.5	24	47.1	1	3	248	0.00	29.912 
15:15	89.3	89.3	86.1	24	47.7	1	3	248	0.00	29.911 
15:20	89.3	89.3	86.1	24	47.7	1	5	248	0.00	29.911 
15:25	89.5	89.5	86.3	24	47.9	1	3	270	0.00	29.911 
15:30	89.9	89.9	86.7	24	48.2	1	3	270	0.00	29.909 
15:35	89.9	89.9	86.5	22	45.9	1	4	225	0.00	29.909 
15:40	89.7	89.7	86.4	23	46.9	1	3	292	0.00	29.909 
15:45	90.3	90.3	87.0	23	47.4	1	5	292	0.00	29.908 
15:50	90.5	90.5	87.3	24	48.7	0	2	135	0.00	29.908 
15:55	90.3	90.3	87.1	24	48.6	1	3	45	0.00	29.908 
16:00	90.3	90.3	87.0	23	47.4	1	3	270	0.00	29.907 
16:05	90.3	90.3	87.0	23	47.4	0	3	292	0.00	29.907 
16:10	90.1	90.1	86.8	23	47.3	2	5	315	0.00	29.907 
16:15	89.9	89.9	86.7	24	48.2	2	4	270	0.00	29.905 
16:20	89.9	89.9	86.7	24	48.2	1	3	270	0.00	29.905 
16:25	90.1	90.1	86.9	24	48.4	1	3	270	0.00	29.905 
16:30	89.5	89.5	86.3	24	47.9	2	5	270	0.00	29.901 
16:35	89.3	89.3	86.1	24	47.7	1	4	292	0.00	29.901 
16:40	88.8	88.8	85.5	23	46.2	2	4	270	0.00	29.901 
16:45	88.6	88.6	85.5	24	47.1	0	2	270	0.00	29.899 
16:50	88.6	88.6	85.5	24	47.1	2	4	315	0.00	29.899 
16:55	88.6	88.6	85.6	25	48.2	2	6	270	0.00	29.899 
17:00	88.8	88.8	85.6	24	47.3	1	2	248	0.00	29.897 
17:05	89.0	89.0	85.8	24	47.5	1	4	270	0.00	29.897 
17:10	89.3	89.3	86.3	25	48.8	1	3	270	0.00	29.897 
17:15	89.5	89.5	86.5	25	49.0	1	4	248	0.00	29.898 
17:20	89.5	89.5	86.3	24	47.9	1	2	248	0.00	29.898 
17:25	89.3	89.3	86.1	24	47.7	1	4	270	0.00	29.898 
17:30	89.3	89.3	86.1	24	47.7	1	2	248	0.00	29.897 
17:35	89.3	89.3	86.1	24	47.7	1	3	45	0.00	29.897 
17:40	89.3	89.3	86.0	23	46.6	2	5	248	0.00	29.897 
17:45	88.8	88.8	85.6	24	47.3	1	3	270	0.00	29.894 
17:50	88.8	88.8	85.6	24	47.3	1	4	270	0.00	29.894 
17:55	88.4	88.4	85.3	24	47.0	1	3	248	0.00	29.894 
18:00	88.0	88.0	84.8	23	45.5	1	4	248	0.00	29.899 
18:05	87.8	87.8	84.7	24	46.5	1	3	270	0.00	29.899 
18:10	87.8	87.8	84.7	24	46.5	1	4	270	0.00	29.899 
18:15	87.6	87.6	84.5	24	46.3	1	3	270	0.00	29.894 
18:20	87.6	87.6	84.5	24	46.3	1	4	270	0.00	29.894 
18:25	87.4	87.4	84.4	25	47.2	1	2	270	0.00	29.894 
18:30	87.6	87.6	84.5	24	46.3	1	3	270	0.00	29.890 
18:35	87.4	87.4	84.3	24	46.1	1	5	270	0.00	29.890 
18:40	87.4	87.4	84.4	25	47.2	1	3	270	0.00	29.890 
18:45	87.2	87.2	84.3	25	47.1	0	1	270	0.00	29.889 
18:50	87.0	87.0	84.1	25	46.9	0	2	270	0.00	29.889 
18:55	87.0	87.0	84.1	25	46.9	1	3	270	0.00	29.889 
19:00	86.7	86.7	83.8	25	46.6	1	3	270	0.00	29.888 
19:05	86.7	86.7	83.8	25	46.6	1	3	270	0.00	29.888 
19:10	86.5	86.5	83.7	26	47.5	0	2	112	0.00	29.888 
19:15	86.3	86.3	83.5	25	46.3	1	3	225	0.00	29.884 
19:20	86.3	86.3	83.5	25	46.3	1	3	225	0.00	29.884 
19:25	86.1	86.1	83.4	26	47.2	1	3	225	0.00	29.884 
19:30	85.9	85.9	83.2	26	47.0	1	4	270	0.00	29.884 
19:35	85.7	85.7	82.9	25	45.8	1	5	68	0.00	29.884 
19:40	85.5	85.5	82.9	26	46.7	1	2	270	0.00	29.884 
19:45	85.5	85.5	82.8	25	45.6	1	2	270	0.00	29.883 
19:50	85.3	85.3	82.7	26	46.5	1	3	270	0.00	29.883 
19:55	85.3	85.3	82.7	26	46.5	0	3	270	0.00	29.883 
20:00	85.1	85.1	82.5	26	46.3	0	1	270	0.00	29.884 
20:05	84.9	84.9	82.4	26	46.2	1	2	270	0.00	29.884 
20:10	84.9	84.9	82.4	26	46.2	0	1	270	0.00	29.884 
20:15	84.7	84.7	82.2	26	46.0	0	1	270	0.00	29.880 
20:20	84.5	84.5	82.0	26	45.8	0	1	270	0.00	29.880 
20:25	84.3	84.3	82.0	27	46.6	0	1	270	0.00	29.880 
20:30	84.0	84.0	81.7	27	46.4	0	1	270	0.00	29.878 
20:35	83.6	83.6	81.4	27	46.1	0	1	270	0.00	29.878 
20:40	83.2	83.2	81.1	27	45.7	0	1	270	0.00	29.878 
20:45	82.8	82.8	80.8	27	45.4	0	1	270	0.00	29.875 
20:50	82.4	82.4	80.5	27	45.0	0	0	---	0.00	29.875 
20:55	82.0	82.0	80.3	28	45.7	0	1	270	0.00	29.875 
21:00	81.6	81.6	80.0	27	44.4	0	0	---	0.00	29.880 
21:05	81.2	81.2	79.8	28	45.0	0	0	---	0.00	29.880 
21:10	80.7	80.7	79.5	29	45.5	0	0	---	0.00	29.880 
21:15	80.1	80.1	79.2	29	44.9	0	0	---	0.00	29.880 
21:20	79.8	79.8	79.1	30	45.6	0	0	---	0.00	29.880 
21:25	79.4	79.4	78.9	31	46.1	0	0	---	0.00	29.880 
21:30	78.8	78.8	78.6	31	45.6	0	0	---	0.00	29.881 
21:35	78.5	78.5	78.6	33	47.0	0	0	---	0.00	29.881 
21:40	77.9	77.9	78.3	33	46.5	0	0	---	0.00	29.881 
21:45	77.4	77.4	78.1	35	47.6	0	0	---	0.00	29.887 
21:50	77.0	77.0	78.0	35	47.2	0	0	---	0.00	29.887 
21:55	76.7	76.7	77.9	35	47.0	0	0	---	0.00	29.887 
22:00	76.3	76.3	77.7	36	47.4	0	0	---	0.00	29.893 
22:05	76.0	76.0	77.7	37	47.8	0	0	---	0.00	29.893 
22:10	75.6	75.6	77.6	39	48.9	0	0	---	0.00	29.893 
22:15	75.3	75.3	77.6	40	49.3	0	0	---	0.00	29.894 
22:20	74.9	74.9	74.9	40	48.9	0	0	---	0.00	29.894 
22:25	74.6	74.6	74.6	40	48.7	0	0	---	0.00	29.894 
22:30	74.2	74.2	74.2	41	49.0	0	0	---	0.00	29.900 
22:35	73.9	73.9	73.9	41	48.7	0	0	---	0.00	29.900 
22:40	73.7	73.7	73.7	42	49.2	0	0	---	0.00	29.900 
22:45	73.3	73.3	73.3	43	49.4	0	0	---	0.00	29.910 
22:50	73.2	73.2	73.2	43	49.3	0	0	---	0.00	29.910 
22:55	72.8	72.8	72.8	43	49.0	0	0	---	0.00	29.910 
23:00	72.7	72.7	72.7	43	48.9	0	0	---	0.00	29.914 
23:05	72.3	72.3	72.3	44	49.2	0	0	---	0.00	29.914 
23:10	72.0	72.0	72.0	45	49.5	0	0	---	0.00	29.914 
23:15	71.6	71.6	71.6	46	49.7	0	0	---	0.00	29.915 
23:20	71.5	71.5	71.5	46	49.6	0	0	---	0.00	29.915 
23:25	71.1	71.1	71.1	46	49.3	0	0	---	0.00	29.915 
23:30	70.8	70.8	70.8	47	49.6	0	0	---	0.00	29.919 
23:35	70.6	70.6	70.6	47	49.4	0	0	---	0.00	29.919 
23:40	70.4	70.4	70.4	47	49.2	0	0	---	0.00	29.919 
23:45	70.3	70.3	70.3	47	49.1	0	0	---	0.00	29.926 
23:50	70.1	70.1	70.1	47	48.9	0	0	---	0.00	29.926 
23:55	69.9	69.9	69.9	48	49.3	0	0	---	0.00	29.926 

CoCoRaHS
IN-AL-39
A2 Web Hosting
Creative Commons License
GoDaddy
search engine by freefind advanced

loaded 2018-11-20 06:45:18 • last modified 2010-11-18 10:43:29
Privacy PolicyDisclaimer
• wx.awcolley.com is powered by PmWiki v.2002016 •
• all content (unless otherwise noted) © 2018 A W Colley